sensor_id;sensor_type;location;lat;lon;timestamp;temperature;humidity
21759;DHT22;11041;50.854;20.580;2024-01-30T00:00:27;-1.60;99.90
21759;DHT22;11041;50.854;20.580;2024-01-30T00:03:13;-0.40;99.90
21759;DHT22;11041;50.854;20.580;2024-01-30T00:05:40;-0.50;99.90
21759;DHT22;11041;50.854;20.580;2024-01-30T00:08:06;-0.50;99.90
21759;DHT22;11041;50.854;20.580;2024-01-30T00:10:32;-0.50;99.90
21759;DHT22;11041;50.854;20.580;2024-01-30T00:12:59;-0.50;99.90
21759;DHT22;11041;50.854;20.580;2024-01-30T00:15:25;-0.50;99.90
21759;DHT22;11041;50.854;20.580;2024-01-30T00:17:52;-0.40;99.90
21759;DHT22;11041;50.854;20.580;2024-01-30T00:20:18;-0.40;99.90
21759;DHT22;11041;50.854;20.580;2024-01-30T00:22:45;-0.40;99.90
21759;DHT22;11041;50.854;20.580;2024-01-30T00:25:12;-0.40;99.90
21759;DHT22;11041;50.854;20.580;2024-01-30T00:27:39;-0.40;99.90
21759;DHT22;11041;50.854;20.580;2024-01-30T00:30:07;-0.50;99.90
21759;DHT22;11041;50.854;20.580;2024-01-30T00:32:36;-0.40;99.90
21759;DHT22;11041;50.854;20.580;2024-01-30T00:35:05;-0.40;99.90
21759;DHT22;11041;50.854;20.580;2024-01-30T00:37:32;-0.40;99.90
21759;DHT22;11041;50.854;20.580;2024-01-30T00:40:02;-0.40;99.90
21759;DHT22;11041;50.854;20.580;2024-01-30T00:42:32;-0.40;99.90
21759;DHT22;11041;50.854;20.580;2024-01-30T00:45:04;-0.60;99.90
21759;DHT22;11041;50.854;20.580;2024-01-30T00:47:33;-0.50;99.90
21759;DHT22;11041;50.854;20.580;2024-01-30T00:50:01;-0.50;99.90
21759;DHT22;11041;50.854;20.580;2024-01-30T00:52:29;-0.50;99.90
21759;DHT22;11041;50.854;20.580;2024-01-30T00:54:57;-0.50;99.90
21759;DHT22;11041;50.854;20.580;2024-01-30T00:57:24;-0.50;99.90
21759;DHT22;11041;50.854;20.580;2024-01-30T00:59:51;-0.50;99.90
21759;DHT22;11041;50.854;20.580;2024-01-30T01:02:18;-0.50;99.90
21759;DHT22;11041;50.854;20.580;2024-01-30T01:04:45;-0.50;99.90
21759;DHT22;11041;50.854;20.580;2024-01-30T01:07:12;-0.60;99.90
21759;DHT22;11041;50.854;20.580;2024-01-30T01:09:38;-0.50;99.90
21759;DHT22;11041;50.854;20.580;2024-01-30T01:12:06;-0.50;99.90
21759;DHT22;11041;50.854;20.580;2024-01-30T01:14:33;-0.50;99.90
21759;DHT22;11041;50.854;20.580;2024-01-30T01:16:59;-0.60;99.90
21759;DHT22;11041;50.854;20.580;2024-01-30T01:19:26;-0.50;99.90
21759;DHT22;11041;50.854;20.580;2024-01-30T01:21:53;-0.60;99.90
21759;DHT22;11041;50.854;20.580;2024-01-30T01:24:20;-0.60;99.90
21759;DHT22;11041;50.854;20.580;2024-01-30T01:26:47;-0.50;99.90
21759;DHT22;11041;50.854;20.580;2024-01-30T01:29:14;-0.50;99.90
21759;DHT22;11041;50.854;20.580;2024-01-30T01:31:41;-0.50;99.90
21759;DHT22;11041;50.854;20.580;2024-01-30T01:34:16;-0.50;99.90
21759;DHT22;11041;50.854;20.580;2024-01-30T01:36:44;-0.50;99.90
21759;DHT22;11041;50.854;20.580;2024-01-30T01:39:10;-0.50;99.90
21759;DHT22;11041;50.854;20.580;2024-01-30T01:41:37;-0.50;99.90
21759;DHT22;11041;50.854;20.580;2024-01-30T01:44:03;-0.50;99.90
21759;DHT22;11041;50.854;20.580;2024-01-30T01:46:33;-0.50;99.90
21759;DHT22;11041;50.854;20.580;2024-01-30T01:49:04;-0.50;99.90
21759;DHT22;11041;50.854;20.580;2024-01-30T01:51:34;-0.50;99.90
21759;DHT22;11041;50.854;20.580;2024-01-30T01:54:03;-0.50;99.90
21759;DHT22;11041;50.854;20.580;2024-01-30T01:56:33;-0.50;99.90
21759;DHT22;11041;50.854;20.580;2024-01-30T01:59:05;-0.50;99.90
21759;DHT22;11041;50.854;20.580;2024-01-30T02:01:38;-0.50;99.90
21759;DHT22;11041;50.854;20.580;2024-01-30T02:04:07;-0.40;99.90
21759;DHT22;11041;50.854;20.580;2024-01-30T02:06:35;-0.30;99.90
21759;DHT22;11041;50.854;20.580;2024-01-30T02:09:01;-0.30;99.90
21759;DHT22;11041;50.854;20.580;2024-01-30T02:11:28;-0.30;99.90
21759;DHT22;11041;50.854;20.580;2024-01-30T02:13:55;-0.30;99.90
21759;DHT22;11041;50.854;20.580;2024-01-30T02:16:21;-0.30;99.90
21759;DHT22;11041;50.854;20.580;2024-01-30T02:18:48;-0.30;99.90
21759;DHT22;11041;50.854;20.580;2024-01-30T02:21:16;-0.30;99.90
21759;DHT22;11041;50.854;20.580;2024-01-30T02:23:48;-0.30;99.90
21759;DHT22;11041;50.854;20.580;2024-01-30T02:26:19;-0.30;99.90
21759;DHT22;11041;50.854;20.580;2024-01-30T02:28:46;-0.40;99.90
21759;DHT22;11041;50.854;20.580;2024-01-30T02:31:14;-0.30;99.90
21759;DHT22;11041;50.854;20.580;2024-01-30T02:33:46;-0.30;99.90
21759;DHT22;11041;50.854;20.580;2024-01-30T02:36:18;-0.40;99.90
21759;DHT22;11041;50.854;20.580;2024-01-30T02:38:49;-0.30;99.90
21759;DHT22;11041;50.854;20.580;2024-01-30T02:41:19;-0.30;99.90
21759;DHT22;11041;50.854;20.580;2024-01-30T02:43:45;-0.30;99.90
21759;DHT22;11041;50.854;20.580;2024-01-30T02:46:15;-0.30;99.90
21759;DHT22;11041;50.854;20.580;2024-01-30T02:48:44;-0.40;99.90
21759;DHT22;11041;50.854;20.580;2024-01-30T02:51:15;-0.40;99.90
21759;DHT22;11041;50.854;20.580;2024-01-30T02:53:45;-0.40;99.90
21759;DHT22;11041;50.854;20.580;2024-01-30T02:56:11;-0.40;99.90
21759;DHT22;11041;50.854;20.580;2024-01-30T02:58:41;-0.40;99.90
21759;DHT22;11041;50.854;20.580;2024-01-30T03:01:08;-0.40;99.90
21759;DHT22;11041;50.854;20.580;2024-01-30T03:03:39;-0.40;99.90
21759;DHT22;11041;50.854;20.580;2024-01-30T03:06:08;-0.40;99.90
21759;DHT22;11041;50.854;20.580;2024-01-30T03:08:40;-0.40;99.90
21759;DHT22;11041;50.854;20.580;2024-01-30T03:11:08;-0.40;99.90
21759;DHT22;11041;50.854;20.580;2024-01-30T03:13:34;-0.40;99.90
21759;DHT22;11041;50.854;20.580;2024-01-30T03:16:04;-0.40;99.90
21759;DHT22;11041;50.854;20.580;2024-01-30T03:18:37;-0.50;99.90
21759;DHT22;11041;50.854;20.580;2024-01-30T03:21:07;-0.40;99.90
21759;DHT22;11041;50.854;20.580;2024-01-30T03:23:38;-0.50;99.90
21759;DHT22;11041;50.854;20.580;2024-01-30T03:26:11;-0.40;99.90
21759;DHT22;11041;50.854;20.580;2024-01-30T03:28:38;-0.40;99.90
21759;DHT22;11041;50.854;20.580;2024-01-30T03:31:10;-0.40;99.90
21759;DHT22;11041;50.854;20.580;2024-01-30T03:33:38;-0.40;99.90
21759;DHT22;11041;50.854;20.580;2024-01-30T03:36:11;-0.40;99.90
21759;DHT22;11041;50.854;20.580;2024-01-30T03:38:41;-0.40;99.90
21759;DHT22;11041;50.854;20.580;2024-01-30T03:41:09;-0.50;99.90
21759;DHT22;11041;50.854;20.580;2024-01-30T03:43:40;-0.40;99.90
21759;DHT22;11041;50.854;20.580;2024-01-30T03:46:07;-0.50;99.90
21759;DHT22;11041;50.854;20.580;2024-01-30T03:48:35;-0.50;99.90
21759;DHT22;11041;50.854;20.580;2024-01-30T03:51:04;-0.40;99.90
21759;DHT22;11041;50.854;20.580;2024-01-30T03:53:31;-0.50;99.90
21759;DHT22;11041;50.854;20.580;2024-01-30T03:55:59;-0.50;99.90
21759;DHT22;11041;50.854;20.580;2024-01-30T03:58:27;-0.40;99.90
21759;DHT22;11041;50.854;20.580;2024-01-30T04:00:57;-0.50;99.90
21759;DHT22;11041;50.854;20.580;2024-01-30T04:03:26;-0.40;99.90
21759;DHT22;11041;50.854;20.580;2024-01-30T04:05:56;-0.40;99.90
21759;DHT22;11041;50.854;20.580;2024-01-30T04:08:25;-0.40;99.90
21759;DHT22;11041;50.854;20.580;2024-01-30T04:10:56;-0.40;99.90
21759;DHT22;11041;50.854;20.580;2024-01-30T04:13:31;-0.30;99.90
21759;DHT22;11041;50.854;20.580;2024-01-30T04:16:05;-0.50;99.90
21759;DHT22;11041;50.854;20.580;2024-01-30T04:18:33;-0.50;99.90
21759;DHT22;11041;50.854;20.580;2024-01-30T04:21:03;-0.50;99.90
21759;DHT22;11041;50.854;20.580;2024-01-30T04:23:30;-0.60;99.90
21759;DHT22;11041;50.854;20.580;2024-01-30T04:26:01;-0.70;99.90
21759;DHT22;11041;50.854;20.580;2024-01-30T04:28:27;-0.70;99.90
21759;DHT22;11041;50.854;20.580;2024-01-30T04:30:58;-0.80;99.90
21759;DHT22;11041;50.854;20.580;2024-01-30T04:33:24;-0.70;99.90
21759;DHT22;11041;50.854;20.580;2024-01-30T04:35:54;-0.70;99.90
21759;DHT22;11041;50.854;20.580;2024-01-30T04:38:22;-0.70;99.90
21759;DHT22;11041;50.854;20.580;2024-01-30T04:40:54;-0.80;99.90
21759;DHT22;11041;50.854;20.580;2024-01-30T04:43:23;-0.80;99.90
21759;DHT22;11041;50.854;20.580;2024-01-30T04:45:50;-0.90;99.90
21759;DHT22;11041;50.854;20.580;2024-01-30T04:48:19;-0.80;99.90
21759;DHT22;11041;50.854;20.580;2024-01-30T04:50:50;-0.90;99.90
21759;DHT22;11041;50.854;20.580;2024-01-30T04:53:16;-0.90;99.90
21759;DHT22;11041;50.854;20.580;2024-01-30T04:55:44;-0.90;99.90
21759;DHT22;11041;50.854;20.580;2024-01-30T04:58:13;-0.90;99.90
21759;DHT22;11041;50.854;20.580;2024-01-30T05:00:43;-1.00;99.90
21759;DHT22;11041;50.854;20.580;2024-01-30T05:03:11;-1.00;99.90
21759;DHT22;11041;50.854;20.580;2024-01-30T05:05:39;-0.90;99.90
21759;DHT22;11041;50.854;20.580;2024-01-30T05:08:05;-1.00;99.90
21759;DHT22;11041;50.854;20.580;2024-01-30T05:10:35;-1.00;99.90
21759;DHT22;11041;50.854;20.580;2024-01-30T05:13:06;-1.00;99.90
21759;DHT22;11041;50.854;20.580;2024-01-30T05:15:35;-1.10;99.90
21759;DHT22;11041;50.854;20.580;2024-01-30T05:18:01;-1.00;99.90
21759;DHT22;11041;50.854;20.580;2024-01-30T05:20:31;-1.00;99.90
21759;DHT22;11041;50.854;20.580;2024-01-30T05:23:00;-1.10;99.90
21759;DHT22;11041;50.854;20.580;2024-01-30T05:25:27;-1.10;99.90
21759;DHT22;11041;50.854;20.580;2024-01-30T05:27:57;-1.10;99.90
21759;DHT22;11041;50.854;20.580;2024-01-30T05:30:29;-1.20;99.90
21759;DHT22;11041;50.854;20.580;2024-01-30T05:32:55;-1.10;99.90
21759;DHT22;11041;50.854;20.580;2024-01-30T05:35:24;-1.10;99.90
21759;DHT22;11041;50.854;20.580;2024-01-30T05:37:53;-1.10;99.90
21759;DHT22;11041;50.854;20.580;2024-01-30T05:40:25;-1.20;99.90
21759;DHT22;11041;50.854;20.580;2024-01-30T05:42:58;-1.10;99.90
21759;DHT22;11041;50.854;20.580;2024-01-30T05:45:29;-1.10;99.90
21759;DHT22;11041;50.854;20.580;2024-01-30T05:47:58;-1.30;99.90
21759;DHT22;11041;50.854;20.580;2024-01-30T05:50:27;-1.20;99.90
21759;DHT22;11041;50.854;20.580;2024-01-30T05:52:58;-1.30;99.90
21759;DHT22;11041;50.854;20.580;2024-01-30T05:55:29;-1.30;99.90
21759;DHT22;11041;50.854;20.580;2024-01-30T05:57:57;-1.40;99.90
21759;DHT22;11041;50.854;20.580;2024-01-30T06:00:33;-1.40;99.90
21759;DHT22;11041;50.854;20.580;2024-01-30T06:03:00;-1.40;99.90
21759;DHT22;11041;50.854;20.580;2024-01-30T06:05:28;-1.40;99.90
21759;DHT22;11041;50.854;20.580;2024-01-30T06:07:55;-1.30;99.90
21759;DHT22;11041;50.854;20.580;2024-01-30T06:10:24;-1.30;99.90
21759;DHT22;11041;50.854;20.580;2024-01-30T06:12:50;-1.30;99.90
21759;DHT22;11041;50.854;20.580;2024-01-30T06:15:17;-1.20;99.90
21759;DHT22;11041;50.854;20.580;2024-01-30T06:17:45;-1.30;99.90
21759;DHT22;11041;50.854;20.580;2024-01-30T06:20:12;-1.20;99.90
21759;DHT22;11041;50.854;20.580;2024-01-30T06:22:40;-1.20;99.90
21759;DHT22;11041;50.854;20.580;2024-01-30T06:25:08;-1.20;99.90
21759;DHT22;11041;50.854;20.580;2024-01-30T06:27:37;-1.20;99.90
21759;DHT22;11041;50.854;20.580;2024-01-30T06:30:05;-1.10;99.90
21759;DHT22;11041;50.854;20.580;2024-01-30T06:32:32;-1.20;99.90
21759;DHT22;11041;50.854;20.580;2024-01-30T06:35:01;-1.20;99.90
21759;DHT22;11041;50.854;20.580;2024-01-30T06:37:28;-1.20;99.90
21759;DHT22;11041;50.854;20.580;2024-01-30T06:39:55;-1.10;99.90
21759;DHT22;11041;50.854;20.580;2024-01-30T06:42:21;-1.10;99.90
21759;DHT22;11041;50.854;20.580;2024-01-30T06:44:47;-0.90;99.90
21759;DHT22;11041;50.854;20.580;2024-01-30T06:47:14;-0.80;99.90
21759;DHT22;11041;50.854;20.580;2024-01-30T06:49:40;-0.70;99.90
21759;DHT22;11041;50.854;20.580;2024-01-30T06:52:08;-0.60;99.90
21759;DHT22;11041;50.854;20.580;2024-01-30T06:54:36;-0.60;99.90
21759;DHT22;11041;50.854;20.580;2024-01-30T06:57:06;-0.50;99.90
21759;DHT22;11041;50.854;20.580;2024-01-30T06:59:38;-0.40;99.90
21759;DHT22;11041;50.854;20.580;2024-01-30T07:02:10;-0.30;99.90
21759;DHT22;11041;50.854;20.580;2024-01-30T07:04:37;-0.30;99.90
21759;DHT22;11041;50.854;20.580;2024-01-30T07:07:06;-0.20;99.90
21759;DHT22;11041;50.854;20.580;2024-01-30T07:09:38;-0.20;99.90
21759;DHT22;11041;50.854;20.580;2024-01-30T07:12:06;-0.10;99.90
21759;DHT22;11041;50.854;20.580;2024-01-30T07:14:34;0.00;99.90
21759;DHT22;11041;50.854;20.580;2024-01-30T07:17:00;0.00;99.90
21759;DHT22;11041;50.854;20.580;2024-01-30T07:19:28;0.10;99.90
21759;DHT22;11041;50.854;20.580;2024-01-30T07:21:55;0.10;99.90
21759;DHT22;11041;50.854;20.580;2024-01-30T07:24:22;0.10;99.90
21759;DHT22;11041;50.854;20.580;2024-01-30T07:26:53;0.20;99.90
21759;DHT22;11041;50.854;20.580;2024-01-30T07:29:20;0.20;99.90
21759;DHT22;11041;50.854;20.580;2024-01-30T07:31:49;0.30;99.90
21759;DHT22;11041;50.854;20.580;2024-01-30T07:34:16;0.30;99.90
21759;DHT22;11041;50.854;20.580;2024-01-30T07:36:42;0.40;99.90
21759;DHT22;11041;50.854;20.580;2024-01-30T07:39:09;0.40;99.90
21759;DHT22;11041;50.854;20.580;2024-01-30T07:41:38;0.50;99.90
21759;DHT22;11041;50.854;20.580;2024-01-30T07:44:10;0.60;99.90
21759;DHT22;11041;50.854;20.580;2024-01-30T07:46:36;0.60;99.90
21759;DHT22;11041;50.854;20.580;2024-01-30T07:49:10;0.60;99.90
21759;DHT22;11041;50.854;20.580;2024-01-30T07:51:39;0.70;99.90
21759;DHT22;11041;50.854;20.580;2024-01-30T07:54:09;0.80;99.90
21759;DHT22;11041;50.854;20.580;2024-01-30T07:56:35;0.80;99.90
21759;DHT22;11041;50.854;20.580;2024-01-30T07:59:03;0.90;99.90
21759;DHT22;11041;50.854;20.580;2024-01-30T08:01:30;0.90;99.90
21759;DHT22;11041;50.854;20.580;2024-01-30T08:03:59;1.00;99.90
21759;DHT22;11041;50.854;20.580;2024-01-30T08:06:27;1.10;99.90
21759;DHT22;11041;50.854;20.580;2024-01-30T08:08:56;1.10;99.90
21759;DHT22;11041;50.854;20.580;2024-01-30T08:11:26;1.20;99.90
21759;DHT22;11041;50.854;20.580;2024-01-30T08:13:58;1.30;99.90
21759;DHT22;11041;50.854;20.580;2024-01-30T08:16:28;1.40;99.90
21759;DHT22;11041;50.854;20.580;2024-01-30T08:18:57;1.40;99.90
21759;DHT22;11041;50.854;20.580;2024-01-30T08:21:28;1.50;99.90
21759;DHT22;11041;50.854;20.580;2024-01-30T08:23:54;1.60;99.90
21759;DHT22;11041;50.854;20.580;2024-01-30T08:26:21;1.60;99.90
21759;DHT22;11041;50.854;20.580;2024-01-30T08:28:53;1.70;99.90
21759;DHT22;11041;50.854;20.580;2024-01-30T08:31:19;1.70;99.90
21759;DHT22;11041;50.854;20.580;2024-01-30T08:33:49;1.80;99.90
21759;DHT22;11041;50.854;20.580;2024-01-30T08:36:20;1.90;99.90
21759;DHT22;11041;50.854;20.580;2024-01-30T08:38:53;1.90;99.90
21759;DHT22;11041;50.854;20.580;2024-01-30T08:41:21;2.10;99.90
21759;DHT22;11041;50.854;20.580;2024-01-30T08:43:48;2.10;99.90
21759;DHT22;11041;50.854;20.580;2024-01-30T08:46:21;2.20;99.90
21759;DHT22;11041;50.854;20.580;2024-01-30T08:48:50;2.20;99.90
21759;DHT22;11041;50.854;20.580;2024-01-30T08:51:17;2.30;99.90
21759;DHT22;11041;50.854;20.580;2024-01-30T08:53:45;2.40;99.90
21759;DHT22;11041;50.854;20.580;2024-01-30T08:56:12;2.50;99.90
21759;DHT22;11041;50.854;20.580;2024-01-30T08:58:44;2.50;99.90
21759;DHT22;11041;50.854;20.580;2024-01-30T09:01:14;2.60;99.90
21759;DHT22;11041;50.854;20.580;2024-01-30T09:03:41;2.60;99.90
21759;DHT22;11041;50.854;20.580;2024-01-30T09:06:10;2.70;99.90
21759;DHT22;11041;50.854;20.580;2024-01-30T09:08:39;2.70;99.90
21759;DHT22;11041;50.854;20.580;2024-01-30T09:11:14;2.80;99.90
21759;DHT22;11041;50.854;20.580;2024-01-30T09:13:41;2.90;99.90
21759;DHT22;11041;50.854;20.580;2024-01-30T09:16:08;2.90;99.90
21759;DHT22;11041;50.854;20.580;2024-01-30T09:18:37;3.00;99.90
21759;DHT22;11041;50.854;20.580;2024-01-30T09:21:05;3.00;99.90
21759;DHT22;11041;50.854;20.580;2024-01-30T09:23:33;3.10;99.90
21759;DHT22;11041;50.854;20.580;2024-01-30T09:26:04;3.10;99.90
21759;DHT22;11041;50.854;20.580;2024-01-30T09:28:31;3.20;99.90
21759;DHT22;11041;50.854;20.580;2024-01-30T09:30:58;3.30;99.90
21759;DHT22;11041;50.854;20.580;2024-01-30T09:33:27;3.40;99.90
21759;DHT22;11041;50.854;20.580;2024-01-30T09:36:00;3.40;99.90
21759;DHT22;11041;50.854;20.580;2024-01-30T09:38:31;3.50;99.90
21759;DHT22;11041;50.854;20.580;2024-01-30T09:41:03;3.60;99.90
21759;DHT22;11041;50.854;20.580;2024-01-30T09:43:38;3.60;99.90
21759;DHT22;11041;50.854;20.580;2024-01-30T09:46:12;3.70;99.90
21759;DHT22;11041;50.854;20.580;2024-01-30T09:48:45;3.70;99.90
21759;DHT22;11041;50.854;20.580;2024-01-30T09:51:17;3.80;99.90
21759;DHT22;11041;50.854;20.580;2024-01-30T09:53:44;3.90;99.90
21759;DHT22;11041;50.854;20.580;2024-01-30T09:56:15;3.90;99.90
21759;DHT22;11041;50.854;20.580;2024-01-30T09:58:45;4.00;99.90
21759;DHT22;11041;50.854;20.580;2024-01-30T10:01:15;4.10;99.90
21759;DHT22;11041;50.854;20.580;2024-01-30T10:03:50;4.10;99.90
21759;DHT22;11041;50.854;20.580;2024-01-30T10:06:19;4.10;99.90
21759;DHT22;11041;50.854;20.580;2024-01-30T10:08:50;4.10;99.90
21759;DHT22;11041;50.854;20.580;2024-01-30T10:11:17;4.20;99.90
21759;DHT22;11041;50.854;20.580;2024-01-30T10:13:47;4.30;99.90
21759;DHT22;11041;50.854;20.580;2024-01-30T10:16:17;4.40;99.90
21759;DHT22;11041;50.854;20.580;2024-01-30T10:18:50;4.30;99.90
21759;DHT22;11041;50.854;20.580;2024-01-30T10:21:19;4.40;99.90
21759;DHT22;11041;50.854;20.580;2024-01-30T10:23:49;4.50;99.90
21759;DHT22;11041;50.854;20.580;2024-01-30T10:26:18;4.70;99.90
21759;DHT22;11041;50.854;20.580;2024-01-30T10:28:48;4.80;99.90
21759;DHT22;11041;50.854;20.580;2024-01-30T10:31:18;4.80;99.90
21759;DHT22;11041;50.854;20.580;2024-01-30T10:33:48;4.90;99.90
21759;DHT22;11041;50.854;20.580;2024-01-30T10:36:14;4.90;99.90
21759;DHT22;11041;50.854;20.580;2024-01-30T10:38:43;5.00;99.90
21759;DHT22;11041;50.854;20.580;2024-01-30T10:41:13;5.20;99.90
21759;DHT22;11041;50.854;20.580;2024-01-30T10:43:57;5.40;99.90
21759;DHT22;11041;50.854;20.580;2024-01-30T10:46:32;5.40;99.90
21759;DHT22;11041;50.854;20.580;2024-01-30T10:49:01;5.50;99.90
21759;DHT22;11041;50.854;20.580;2024-01-30T10:51:29;5.50;99.90
21759;DHT22;11041;50.854;20.580;2024-01-30T10:53:58;5.70;99.90
21759;DHT22;11041;50.854;20.580;2024-01-30T10:56:29;5.80;99.90
21759;DHT22;11041;50.854;20.580;2024-01-30T10:59:01;5.90;99.90
21759;DHT22;11041;50.854;20.580;2024-01-30T11:01:30;6.00;99.90
21759;DHT22;11041;50.854;20.580;2024-01-30T11:03:57;6.10;99.90
21759;DHT22;11041;50.854;20.580;2024-01-30T11:06:26;6.10;99.90
21759;DHT22;11041;50.854;20.580;2024-01-30T11:09:09;6.20;99.90
21759;DHT22;11041;50.854;20.580;2024-01-30T11:11:58;6.30;99.90
21759;DHT22;11041;50.854;20.580;2024-01-30T11:14:32;6.30;99.90
21759;DHT22;11041;50.854;20.580;2024-01-30T11:17:00;6.40;99.90
21759;DHT22;11041;50.854;20.580;2024-01-30T11:19:31;6.40;99.90
21759;DHT22;11041;50.854;20.580;2024-01-30T11:22:00;6.50;99.90
21759;DHT22;11041;50.854;20.580;2024-01-30T11:24:27;6.50;99.90
21759;DHT22;11041;50.854;20.580;2024-01-30T11:26:57;6.50;99.90
21759;DHT22;11041;50.854;20.580;2024-01-30T11:29:28;6.50;99.90
21759;DHT22;11041;50.854;20.580;2024-01-30T11:31:56;6.40;99.90
21759;DHT22;11041;50.854;20.580;2024-01-30T11:34:26;6.40;99.90
21759;DHT22;11041;50.854;20.580;2024-01-30T11:37:01;6.40;99.90
21759;DHT22;11041;50.854;20.580;2024-01-30T11:39:36;6.40;99.90
21759;DHT22;11041;50.854;20.580;2024-01-30T11:42:03;6.30;99.90
21759;DHT22;11041;50.854;20.580;2024-01-30T11:44:34;6.20;99.90
21759;DHT22;11041;50.854;20.580;2024-01-30T11:47:03;6.20;99.90
21759;DHT22;11041;50.854;20.580;2024-01-30T11:49:33;6.20;99.90
21759;DHT22;11041;50.854;20.580;2024-01-30T11:52:04;6.20;99.90
21759;DHT22;11041;50.854;20.580;2024-01-30T11:54:34;6.20;99.90
21759;DHT22;11041;50.854;20.580;2024-01-30T11:57:01;6.20;99.90
21759;DHT22;11041;50.854;20.580;2024-01-30T11:59:30;6.20;99.90
21759;DHT22;11041;50.854;20.580;2024-01-30T12:01:56;6.20;99.90
21759;DHT22;11041;50.854;20.580;2024-01-30T12:04:23;6.10;99.90
21759;DHT22;11041;50.854;20.580;2024-01-30T12:06:54;6.10;99.90
21759;DHT22;11041;50.854;20.580;2024-01-30T12:09:21;6.10;99.90
21759;DHT22;11041;50.854;20.580;2024-01-30T12:11:48;6.20;99.90
21759;DHT22;11041;50.854;20.580;2024-01-30T12:14:16;6.30;99.90
21759;DHT22;11041;50.854;20.580;2024-01-30T12:16:49;6.30;99.90
21759;DHT22;11041;50.854;20.580;2024-01-30T12:19:25;6.30;99.90
21759;DHT22;11041;50.854;20.580;2024-01-30T12:21:58;6.40;99.90
21759;DHT22;11041;50.854;20.580;2024-01-30T12:24:28;6.40;99.90
21759;DHT22;11041;50.854;20.580;2024-01-30T12:27:01;6.40;99.90
21759;DHT22;11041;50.854;20.580;2024-01-30T12:29:32;6.40;99.90
21759;DHT22;11041;50.854;20.580;2024-01-30T12:32:00;6.40;99.90
21759;DHT22;11041;50.854;20.580;2024-01-30T12:34:27;6.50;99.90
21759;DHT22;11041;50.854;20.580;2024-01-30T12:36:58;6.50;99.90
21759;DHT22;11041;50.854;20.580;2024-01-30T12:39:27;6.60;99.90
21759;DHT22;11041;50.854;20.580;2024-01-30T12:41:53;6.60;99.90
21759;DHT22;11041;50.854;20.580;2024-01-30T12:44:23;6.70;99.90
21759;DHT22;11041;50.854;20.580;2024-01-30T12:46:49;6.60;99.90
21759;DHT22;11041;50.854;20.580;2024-01-30T12:49:17;6.70;99.90
21759;DHT22;11041;50.854;20.580;2024-01-30T12:51:46;6.70;99.90
21759;DHT22;11041;50.854;20.580;2024-01-30T12:54:14;6.60;99.90
21759;DHT22;11041;50.854;20.580;2024-01-30T12:56:42;6.60;99.90
21759;DHT22;11041;50.854;20.580;2024-01-30T12:59:10;6.60;99.90
21759;DHT22;11041;50.854;20.580;2024-01-30T13:01:39;6.50;99.90
21759;DHT22;11041;50.854;20.580;2024-01-30T13:04:08;6.50;99.90
21759;DHT22;11041;50.854;20.580;2024-01-30T13:06:35;6.50;99.90
21759;DHT22;11041;50.854;20.580;2024-01-30T13:09:02;6.50;99.90
21759;DHT22;11041;50.854;20.580;2024-01-30T13:11:32;6.50;99.90
21759;DHT22;11041;50.854;20.580;2024-01-30T13:14:02;6.50;99.90
21759;DHT22;11041;50.854;20.580;2024-01-30T13:16:30;6.60;99.90
21759;DHT22;11041;50.854;20.580;2024-01-30T13:18:57;6.50;99.90
21759;DHT22;11041;50.854;20.580;2024-01-30T13:21:29;6.50;99.90
21759;DHT22;11041;50.854;20.580;2024-01-30T13:24:00;6.60;99.90
21759;DHT22;11041;50.854;20.580;2024-01-30T13:26:26;6.60;99.90
21759;DHT22;11041;50.854;20.580;2024-01-30T13:28:55;6.60;99.90
21759;DHT22;11041;50.854;20.580;2024-01-30T13:31:24;6.70;99.90
21759;DHT22;11041;50.854;20.580;2024-01-30T13:33:54;6.60;99.90
21759;DHT22;11041;50.854;20.580;2024-01-30T13:36:22;6.60;99.90
21759;DHT22;11041;50.854;20.580;2024-01-30T13:38:51;6.60;99.90
21759;DHT22;11041;50.854;20.580;2024-01-30T13:41:20;6.60;99.90
21759;DHT22;11041;50.854;20.580;2024-01-30T13:43:53;6.60;99.90
21759;DHT22;11041;50.854;20.580;2024-01-30T13:46:21;6.60;99.90
21759;DHT22;11041;50.854;20.580;2024-01-30T13:48:50;6.50;99.90
21759;DHT22;11041;50.854;20.580;2024-01-30T13:51:19;6.40;99.90
21759;DHT22;11041;50.854;20.580;2024-01-30T13:53:48;6.40;99.90
21759;DHT22;11041;50.854;20.580;2024-01-30T13:56:16;6.30;99.90
21759;DHT22;11041;50.854;20.580;2024-01-30T13:58:44;6.30;99.90
21759;DHT22;11041;50.854;20.580;2024-01-30T14:01:13;6.30;99.90
21759;DHT22;11041;50.854;20.580;2024-01-30T14:03:40;6.30;99.90
21759;DHT22;11041;50.854;20.580;2024-01-30T14:06:09;6.30;99.90
21759;DHT22;11041;50.854;20.580;2024-01-30T14:08:36;6.30;99.90
21759;DHT22;11041;50.854;20.580;2024-01-30T14:11:06;6.30;99.90
21759;DHT22;11041;50.854;20.580;2024-01-30T14:13:33;6.20;99.90
21759;DHT22;11041;50.854;20.580;2024-01-30T14:16:02;6.10;99.90
21759;DHT22;11041;50.854;20.580;2024-01-30T14:18:30;6.00;99.90
21759;DHT22;11041;50.854;20.580;2024-01-30T14:20:57;5.90;99.90
21759;DHT22;11041;50.854;20.580;2024-01-30T14:23:24;6.00;99.90
21759;DHT22;11041;50.854;20.580;2024-01-30T14:25:52;6.00;99.90
21759;DHT22;11041;50.854;20.580;2024-01-30T14:28:20;6.00;99.90
21759;DHT22;11041;50.854;20.580;2024-01-30T14:30:50;5.90;99.90
21759;DHT22;11041;50.854;20.580;2024-01-30T14:33:17;5.80;99.90
21759;DHT22;11041;50.854;20.580;2024-01-30T14:35:47;5.80;99.90
21759;DHT22;11041;50.854;20.580;2024-01-30T14:38:17;5.70;99.90
21759;DHT22;11041;50.854;20.580;2024-01-30T14:40:43;5.70;99.90
21759;DHT22;11041;50.854;20.580;2024-01-30T14:43:12;5.60;99.90
21759;DHT22;11041;50.854;20.580;2024-01-30T14:45:39;5.60;99.90
21759;DHT22;11041;50.854;20.580;2024-01-30T14:48:07;5.50;99.90
21759;DHT22;11041;50.854;20.580;2024-01-30T14:50:33;5.40;99.90
21759;DHT22;11041;50.854;20.580;2024-01-30T14:53:05;5.40;99.90
21759;DHT22;11041;50.854;20.580;2024-01-30T14:55:32;5.30;99.90
21759;DHT22;11041;50.854;20.580;2024-01-30T14:58:01;5.20;99.90
21759;DHT22;11041;50.854;20.580;2024-01-30T15:00:29;5.10;99.90
21759;DHT22;11041;50.854;20.580;2024-01-30T15:02:59;5.10;99.90
21759;DHT22;11041;50.854;20.580;2024-01-30T15:05:28;5.00;99.90
21759;DHT22;11041;50.854;20.580;2024-01-30T15:07:54;4.90;99.90
21759;DHT22;11041;50.854;20.580;2024-01-30T15:10:23;4.80;99.90
21759;DHT22;11041;50.854;20.580;2024-01-30T15:12:49;4.60;99.90
21759;DHT22;11041;50.854;20.580;2024-01-30T15:15:16;4.50;99.90
21759;DHT22;11041;50.854;20.580;2024-01-30T15:17:43;4.40;99.90
21759;DHT22;11041;50.854;20.580;2024-01-30T15:20:11;4.30;99.90
21759;DHT22;11041;50.854;20.580;2024-01-30T15:22:41;4.20;99.90
21759;DHT22;11041;50.854;20.580;2024-01-30T15:25:10;4.10;99.90
21759;DHT22;11041;50.854;20.580;2024-01-30T15:27:40;4.00;99.90
21759;DHT22;11041;50.854;20.580;2024-01-30T15:30:08;3.90;99.90
21759;DHT22;11041;50.854;20.580;2024-01-30T15:32:43;3.80;99.90
21759;DHT22;11041;50.854;20.580;2024-01-30T15:35:09;3.70;99.90